Time;durP1;ratioP1;P1;durP2;ratioP2;P2;SDS_P1;SDS_P2;PMS_P1;PMS_P2;Temp;Humidity;BMP_temperature;BMP_pressure;BME280_temperature;BME280_humidity;BME280_pressure;Samples;Min_cycle;Max_cycle;Signal;HPM_P1;HPM_P2
2022/08/22 00:01:06;;;;;;;29.25;12.55;;;;;;;20.64;100.00;99149.06;6298393;28;20630;-75
2022/08/22 00:04:15;;;;;;;18.45;11.70;;;;;;;20.66;100.00;99147.06;6317413;28;20066;-74
2022/08/22 00:07:18;;;;;;;17.85;11.32;;;;;;;20.71;100.00;99144.69;6323507;28;20127;-74
2022/08/22 00:10:30;;;;;;;22.13;11.88;;;;;;;20.72;100.00;99149.81;6324410;28;20040;-75
2022/08/22 00:13:53;;;;;;;25.40;12.38;;;;;;;20.60;100.00;99156.56;6322948;28;20411;-75
2022/08/22 00:17:00;;;;;;;19.42;11.50;;;;;;;20.68;100.00;99147.72;6324377;28;20476;-75
2022/08/22 00:20:05;;;;;;;22.75;11.98;;;;;;;20.67;100.00;99156.66;6305927;28;20056;-74
2022/08/22 00:23:21;;;;;;;21.77;12.23;;;;;;;20.76;100.00;99147.63;6305766;28;20048;-74
2022/08/22 00:26:42;;;;;;;20.05;12.20;;;;;;;20.69;100.00;99139.59;6322446;28;20145;-75
2022/08/22 00:29:48;;;;;;;18.98;12.23;;;;;;;20.70;100.00;99143.88;6322946;28;20042;-74
2022/08/22 00:32:59;;;;;;;27.15;12.50;;;;;;;20.73;100.00;99140.88;6323765;28;20067;-73
2022/08/22 00:36:12;;;;;;;22.88;12.68;;;;;;;20.70;100.00;99135.91;6322568;28;20480;-75
2022/08/22 00:39:25;;;;;;;20.95;12.43;;;;;;;20.69;100.00;99142.25;6322935;28;20391;-75
2022/08/22 00:42:32;;;;;;;23.13;12.13;;;;;;;20.77;100.00;99146.59;6324130;28;20094;-75
2022/08/22 00:45:33;;;;;;;21.10;11.75;;;;;;;20.81;100.00;99144.44;6322740;28;20051;-74
2022/08/22 00:49:10;;;;;;;25.30;12.10;;;;;;;20.81;100.00;99145.25;6323886;28;20044;-75
2022/08/22 00:52:50;;;;;;;21.30;11.90;;;;;;;20.79;100.00;99149.91;6322734;28;20047;-74
2022/08/22 00:56:21;;;;;;;23.70;12.80;;;;;;;20.80;100.00;99154.22;6323690;28;20040;-74
2022/08/22 00:59:55;;;;;;;21.47;12.37;;;;;;;20.83;100.00;99164.44;6323566;28;20051;-74
2022/08/22 01:03:18;;;;;;;20.70;12.05;;;;;;;20.79;100.00;99165.00;6323540;28;20077;-74
2022/08/22 01:06:25;;;;;;;24.83;12.48;;;;;;;20.78;100.00;99164.19;6323521;28;20048;-74
2022/08/22 01:09:38;;;;;;;22.38;12.15;;;;;;;20.75;100.00;99158.41;6314039;28;20591;-74
2022/08/22 01:12:51;;;;;;;23.27;12.63;;;;;;;20.70;100.00;99158.97;6298270;28;20544;-75
2022/08/22 01:16:25;;;;;;;26.95;13.98;;;;;;;20.61;100.00;99158.22;6298053;28;20040;-74
2022/08/22 01:19:25;;;;;;;24.98;13.65;;;;;;;20.62;100.00;99162.50;6296593;28;20045;-74
2022/08/22 01:22:47;;;;;;;23.07;13.40;;;;;;;20.65;100.00;99159.50;6297091;28;20036;-75
2022/08/22 01:26:10;;;;;;;27.35;15.15;;;;;;;20.69;100.00;99159.94;6298046;28;20060;-74
2022/08/22 01:29:23;;;;;;;24.25;13.70;;;;;;;20.64;100.00;99157.03;6297821;28;20036;-74
2022/08/22 01:32:30;;;;;;;23.55;14.15;;;;;;;20.57;100.00;99148.94;6297727;28;20041;-75
2022/08/22 01:35:53;;;;;;;23.77;15.30;;;;;;;20.57;100.00;99148.94;6296552;28;20061;-75
2022/08/22 01:39:09;;;;;;;22.33;13.65;;;;;;;20.65;100.00;99153.34;6296525;28;20651;-74
2022/08/22 01:42:16;;;;;;;25.40;14.90;;;;;;;20.58;100.00;99155.06;6297690;28;20060;-74
2022/08/22 01:45:40;;;;;;;23.45;14.70;;;;;;;20.52;100.00;99148.66;6296391;28;20094;-75
2022/08/22 01:48:54;;;;;;;20.70;14.07;;;;;;;20.53;100.00;99156.44;6296409;28;20048;-74
2022/08/22 01:52:05;;;;;;;24.88;14.90;;;;;;;20.54;100.00;99151.94;6297357;28;20447;-75
2022/08/22 01:55:27;;;;;;;27.95;16.17;;;;;;;20.56;100.00;99144.63;6296107;28;20078;-74
2022/08/22 01:58:32;;;;;;;25.45;15.15;;;;;;;20.52;100.00;99143.34;6296104;28;20042;-74
2022/08/22 02:01:48;;;;;;;26.08;15.82;;;;;;;20.45;100.00;99143.25;6296108;28;20044;-74
2022/08/22 02:05:15;;;;;;;25.08;14.82;;;;;;;20.45;100.00;99145.09;6296093;28;20055;-75
2022/08/22 02:08:30;;;;;;;26.02;15.60;;;;;;;20.42;100.00;99145.44;6295908;28;20050;-74
2022/08/22 02:11:56;;;;;;;24.02;14.48;;;;;;;20.43;100.00;99145.25;6295855;28;20086;-74
2022/08/22 02:15:01;;;;;;;23.10;14.45;;;;;;;20.42;100.00;99140.13;6295807;28;20052;-74
2022/08/22 02:18:06;;;;;;;22.98;14.77;;;;;;;20.46;100.00;99142.22;6295780;28;20135;-74
2022/08/22 02:21:20;;;;;;;21.50;14.85;;;;;;;20.48;100.00;99142.88;6297031;28;20044;-75
2022/08/22 02:25:00;;;;;;;26.70;15.52;;;;;;;20.56;100.00;99149.13;6296945;28;20071;-73
2022/08/22 02:28:12;;;;;;;24.45;14.65;;;;;;;20.52;100.00;99151.31;6283715;28;20071;-73
2022/08/22 02:31:22;;;;;;;22.60;14.57;;;;;;;20.51;100.00;99150.50;6296916;28;20553;-74
2022/08/22 02:34:27;;;;;;;24.00;15.25;;;;;;;20.44;100.00;99154.03;6302013;28;20498;-73
2022/08/22 02:37:34;;;;;;;23.60;14.70;;;;;;;20.36;100.00;99154.91;6301861;28;20036;-74
2022/08/22 02:40:37;;;;;;;22.30;14.90;;;;;;;20.28;100.00;99160.28;6302069;28;20060;-75
2022/08/22 02:43:56;;;;;;;20.90;14.57;;;;;;;20.23;100.00;99157.34;6301635;28;20076;-74
2022/08/22 02:47:04;;;;;;;23.17;14.73;;;;;;;20.24;100.00;99156.34;6299471;28;20573;-74
2022/08/22 02:50:11;;;;;;;22.80;14.38;;;;;;;20.25;100.00;99158.81;6299690;28;20040;-75
2022/08/22 02:53:35;;;;;;;24.88;13.27;;;;;;;20.32;100.00;99157.13;6300138;28;20076;-74
2022/08/22 02:56:44;;;;;;;23.90;13.80;;;;;;;20.31;100.00;99158.09;6300014;28;20380;-73
2022/08/22 03:00:14;;;;;;;23.17;14.07;;;;;;;20.28;100.00;99160.28;6300234;28;20381;-74
2022/08/22 03:03:15;;;;;;;20.73;14.48;;;;;;;20.17;100.00;99158.06;6301424;28;20519;-74
2022/08/22 03:06:43;;;;;;;18.58;13.02;;;;;;;20.11;100.00;99159.59;6301330;28;20056;-74
2022/08/22 03:10:09;;;;;;;17.90;13.65;;;;;;;20.08;100.00;99158.13;6301198;28;20045;-75
2022/08/22 03:13:23;;;;;;;22.73;13.63;;;;;;;20.07;100.00;99156.47;6301001;28;20578;-74
2022/08/22 03:16:36;;;;;;;17.58;13.05;;;;;;;20.04;100.00;99159.47;6300965;28;20047;-75
2022/08/22 03:20:06;;;;;;;25.10;14.02;;;;;;;19.93;100.00;99168.66;6300937;28;20048;-74
2022/08/22 03:23:13;;;;;;;25.40;14.35;;;;;;;19.88;100.00;99168.34;6299617;28;20050;-73
2022/08/22 03:26:43;;;;;;;19.95;13.73;;;;;;;19.87;100.00;99176.44;6299421;28;20416;-73
2022/08/22 03:30:40;;;;;;;21.35;13.60;;;;;;;19.88;100.00;99175.47;6274927;28;20092;-73
2022/08/22 03:33:41;;;;;;;23.52;13.93;;;;;;;19.97;100.00;99171.75;6254430;28;20397;-73
2022/08/22 03:37:18;;;;;;;20.00;14.15;;;;;;;19.90;100.00;99176.13;6300255;28;20049;-73
2022/08/22 03:40:42;;;;;;;22.27;14.20;;;;;;;19.81;100.00;99183.28;6297879;28;20090;-74
2022/08/22 03:44:30;;;;;;;21.40;14.45;;;;;;;19.82;100.00;99184.09;6298236;28;20419;-73
2022/08/22 03:48:00;;;;;;;25.52;15.07;;;;;;;19.79;100.00;99187.94;6300107;28;20476;-74
2022/08/22 03:51:20;;;;;;;27.30;14.93;;;;;;;19.76;100.00;99190.09;6300003;28;20064;-74
2022/08/22 03:54:51;;;;;;;29.63;15.67;;;;;;;19.85;100.00;99196.97;6300040;28;20059;-74
2022/08/22 03:58:22;;;;;;;23.15;16.17;;;;;;;19.88;100.00;99196.63;6296573;28;20276;-74
2022/08/22 04:01:40;;;;;;;25.88;15.90;;;;;;;19.89;100.00;99201.78;6299876;28;20044;-74
2022/08/22 04:05:08;;;;;;;26.42;15.70;;;;;;;19.91;100.00;99202.41;6298531;28;20488;-74
2022/08/22 04:08:18;;;;;;;23.98;15.70;;;;;;;19.86;100.00;99206.56;6299600;28;20435;-74
2022/08/22 04:11:43;;;;;;;31.42;15.93;;;;;;;19.88;100.00;99208.03;6297941;28;20044;-74
2022/08/22 04:15:05;;;;;;;26.23;15.23;;;;;;;19.96;100.00;99209.00;6298138;28;20063;-75
2022/08/22 04:18:14;;;;;;;;;;;;;;;19.99;100.00;99216.59;6299923;28;20074;-74
2022/08/22 04:22:09;;;;;;;23.42;15.25;;;;;;;20.05;100.00;99223.84;6281527;28;19959;-75
2022/08/22 04:25:22;;;;;;;24.05;15.75;;;;;;;20.12;100.00;99208.91;6218947;28;20091;-74
2022/08/22 04:28:40;;;;;;;28.23;15.90;;;;;;;20.12;100.00;99215.03;6326046;28;20051;-74
2022/08/22 04:31:56;;;;;;;28.13;16.70;;;;;;;20.03;100.00;99216.06;6309261;28;20151;-73
2022/08/22 04:35:02;;;;;;;36.20;18.77;;;;;;;20.02;100.00;99216.25;6336183;27;20130;-74
2022/08/22 04:38:15;;;;;;;33.88;18.45;;;;;;;19.96;100.00;99209.84;6319123;28;20479;-74
2022/08/22 04:41:49;;;;;;;32.83;18.80;;;;;;;20.06;100.00;99215.72;6310576;28;20037;-74
2022/08/22 04:44:59;;;;;;;30.33;19.10;;;;;;;20.16;100.00;99212.84;6297942;28;20084;-74
2022/08/22 04:48:00;;;;;;;31.10;19.30;;;;;;;20.19;100.00;99220.44;6296638;28;20068;-74
2022/08/22 04:51:18;;;;;;;27.93;19.57;;;;;;;20.30;100.00;99224.50;6296536;28;20051;-75
2022/08/22 04:54:39;;;;;;;28.80;17.70;;;;;;;20.37;100.00;99216.69;6296776;28;20051;-75
2022/08/22 04:58:00;;;;;;;27.07;18.00;;;;;;;20.41;100.00;99205.56;6297502;28;20043;-74
2022/08/22 05:01:29;;;;;;;25.90;18.52;;;;;;;20.47;100.00;99206.66;6296546;28;20047;-74
2022/08/22 05:04:35;;;;;;;30.42;17.55;;;;;;;20.59;100.00;99210.56;6296245;28;20044;-73
2022/08/22 05:07:42;;;;;;;26.50;17.20;;;;;;;20.60;100.00;99219.34;6295976;28;20047;-73
2022/08/22 05:10:46;;;;;;;30.05;17.45;;;;;;;20.71;100.00;99232.16;6302824;28;20036;-74
2022/08/22 05:13:53;;;;;;;28.80;16.23;;;;;;;20.75;100.00;99237.94;6312801;28;20414;-74
2022/08/22 05:16:57;;;;;;;27.33;17.77;;;;;;;20.82;100.00;99246.84;6312530;28;20040;-74
2022/08/22 05:20:06;;;;;;;30.50;17.05;;;;;;;20.83;100.00;99241.31;6281993;28;20423;-75
2022/08/22 05:23:16;;;;;;;28.40;18.27;;;;;;;20.81;100.00;99248.63;6306659;28;20041;-74
2022/08/22 05:26:22;;;;;;;28.25;18.10;;;;;;;20.76;100.00;99253.66;6315186;28;20405;-75
2022/08/22 05:29:30;;;;;;;29.77;18.35;;;;;;;20.81;100.00;99248.63;6331740;28;20244;-75
2022/08/22 05:32:58;;;;;;;24.42;18.50;;;;;;;20.71;100.00;99263.97;6321928;28;20502;-74
2022/08/22 05:36:38;;;;;;;30.17;19.05;;;;;;;20.70;100.00;99264.97;6321504;28;20059;-74
2022/08/22 05:39:46;;;;;;;32.35;18.60;;;;;;;20.65;100.00;99270.81;6318476;28;20036;-73
2022/08/22 05:42:47;;;;;;;29.20;18.25;;;;;;;20.55;100.00;99278.16;6285040;28;20048;-72
2022/08/22 05:45:49;;;;;;;32.00;19.13;;;;;;;20.53;100.00;99280.97;6310063;28;20515;-73
2022/08/22 05:49:02;;;;;;;31.95;18.42;;;;;;;20.60;100.00;99272.34;6320325;28;20503;-73
2022/08/22 05:52:14;;;;;;;30.48;18.80;;;;;;;20.63;100.00;99272.81;6312493;28;20040;-73
2022/08/22 05:55:15;;;;;;;;;;;;;;;20.66;100.00;99275.09;6289797;28;20055;-72
2022/08/22 05:58:40;;;;;;;28.60;17.70;;;;;;;20.73;100.00;99256.66;6341278;28;19969;-73
2022/08/22 06:01:53;;;;;;;32.20;18.40;;;;;;;20.77;100.00;99259.78;6325352;28;20040;-74
2022/08/22 06:05:01;;;;;;;30.15;18.02;;;;;;;20.81;100.00;99264.53;6301753;28;20355;-74
2022/08/22 06:08:09;;;;;;;34.88;18.92;;;;;;;20.81;100.00;99283.09;6320271;28;20169;-74
2022/08/22 06:12:07;;;;;;;27.77;17.02;;;;;;;20.78;100.00;99280.00;6302512;28;20424;-74
2022/08/22 06:15:30;;;;;;;26.70;16.42;;;;;;;20.82;100.00;99278.66;6219031;28;20061;-75
2022/08/22 06:18:33;;;;;;;29.13;17.08;;;;;;;20.97;100.00;99278.66;6216600;28;20784;-75
2022/08/22 06:21:40;;;;;;;36.60;19.23;;;;;;;21.01;100.00;99280.78;6319233;28;20047;-72
2022/08/22 06:24:41;;;;;;;28.58;18.33;;;;;;;21.02;100.00;99284.25;6319025;28;20044;-72
2022/08/22 06:27:47;;;;;;;25.85;17.10;;;;;;;20.95;100.00;99280.69;6320280;28;20056;-75
2022/08/22 06:30:52;;;;;;;24.83;16.70;;;;;;;21.00;100.00;99284.44;6320629;28;20040;-75
2022/08/22 06:34:01;;;;;;;24.85;15.07;;;;;;;21.10;100.00;99287.63;6320234;28;20040;-75
2022/08/22 06:37:06;;;;;;;23.08;15.52;;;;;;;21.03;100.00;99276.13;6318813;28;20040;-74
2022/08/22 06:40:13;;;;;;;27.15;16.45;;;;;;;21.13;100.00;99274.03;6302437;28;20052;-72
2022/08/22 06:43:15;;;;;;;25.20;16.25;;;;;;;21.08;100.00;99271.09;6302053;28;20055;-71
2022/08/22 06:46:16;;;;;;;;;;;;;;;20.97;100.00;99270.72;6320450;28;20048;-71
2022/08/22 06:49:19;;;;;;;26.65;14.60;;;;;;;20.84;100.00;99258.06;6336485;28;19920;-71
2022/08/22 06:52:23;;;;;;;22.17;14.32;;;;;;;20.72;100.00;99257.66;6302298;28;20110;-72
2022/08/22 06:55:27;;;;;;;23.15;14.55;;;;;;;20.69;100.00;99256.22;6319382;28;20483;-71
2022/08/22 06:58:42;;;;;;;22.90;14.85;;;;;;;20.65;100.00;99257.56;6304767;28;20252;-72
2022/08/22 07:01:51;;;;;;;26.90;15.98;;;;;;;20.85;100.00;99267.66;6283100;28;20420;-75
2022/08/22 07:04:52;;;;;;;24.67;15.70;;;;;;;21.00;100.00;99275.66;6294212;28;20052;-74
2022/08/22 07:07:54;;;;;;;29.47;16.37;;;;;;;21.10;100.00;99278.88;6297752;28;20450;-74
2022/08/22 07:10:55;;;;;;;23.17;15.77;;;;;;;21.29;100.00;99282.81;6327818;28;20379;-75
2022/08/22 07:14:03;;;;;;;24.13;16.30;;;;;;;21.27;100.00;99276.88;6286120;28;20109;-75
2022/08/22 07:17:14;;;;;;;24.25;16.55;;;;;;;21.28;100.00;99282.00;6295145;28;20048;-75
2022/08/22 07:20:26;;;;;;;24.27;15.80;;;;;;;21.37;100.00;99293.34;6298337;28;20079;-75
2022/08/22 07:23:39;;;;;;;26.60;16.40;;;;;;;21.18;100.00;99294.69;6298334;28;20063;-75
2022/08/22 07:27:07;;;;;;;28.95;17.95;;;;;;;21.46;100.00;99297.59;6287378;28;20124;-75
2022/08/22 07:30:19;;;;;;;25.25;17.40;;;;;;;21.48;100.00;99290.28;6321413;28;20039;-75
2022/08/22 07:33:29;;;;;;;;;;;;;;;21.46;100.00;99289.66;6303222;28;20085;-75
2022/08/22 07:36:45;;;;;;;30.25;17.35;;;;;;;21.22;100.00;99279.25;6317654;28;20406;-75
2022/08/22 07:40:10;;;;;;;27.27;16.63;;;;;;;21.20;100.00;99276.78;6298257;28;20522;-75
2022/08/22 07:43:31;;;;;;;25.00;16.63;;;;;;;21.50;100.00;99288.28;6281406;28;20519;-72
2022/08/22 07:46:42;;;;;;;30.23;16.35;;;;;;;21.61;100.00;99286.97;6309549;28;20127;-72
2022/08/22 07:49:52;;;;;;;26.98;16.88;;;;;;;21.33;100.00;99282.28;6327251;28;20070;-75
2022/08/22 07:53:00;;;;;;;26.77;17.10;;;;;;;21.62;100.00;99280.69;6307449;28;20463;-72
2022/08/22 07:56:05;;;;;;;24.95;16.33;;;;;;;21.85;100.00;99288.53;6307464;28;20044;-72
2022/08/22 07:59:13;;;;;;;25.38;16.15;;;;;;;22.13;100.00;99291.34;6322778;28;20185;-72
2022/08/22 08:02:17;;;;;;;23.52;16.00;;;;;;;22.36;100.00;99287.69;6323820;28;20040;-73
2022/08/22 08:05:22;;;;;;;25.63;17.30;;;;;;;22.44;100.00;99292.06;6305745;28;20040;-74
2022/08/22 08:08:44;;;;;;;26.10;17.13;;;;;;;22.64;100.00;99301.06;6305554;28;20056;-72
2022/08/22 08:11:48;;;;;;;25.63;17.80;;;;;;;22.43;100.00;99295.75;6322722;28;20044;-72
2022/08/22 08:14:52;;;;;;;23.10;16.92;;;;;;;23.05;100.00;99295.09;6322480;28;20052;-75
2022/08/22 08:17:59;;;;;;;26.33;17.80;;;;;;;23.34;100.00;99301.25;6322227;28;20044;-74
2022/08/22 08:21:05;;;;;;;26.08;17.70;;;;;;;24.08;100.00;99295.31;6293631;28;20048;-75
2022/08/22 08:24:15;;;;;;;28.13;18.77;;;;;;;24.68;100.00;99295.47;6303159;28;20067;-75
2022/08/22 08:30:55;;;;;;;34.65;19.10;;;;;;;24.89;100.00;99307.81;6297876;28;20044;-74
2022/08/22 08:34:07;;;;;;;28.10;19.15;;;;;;;24.75;100.00;99303.50;6279865;28;20052;-74
2022/08/22 08:37:21;;;;;;;28.10;17.45;;;;;;;25.10;100.00;99305.94;6285281;28;20400;-72
2022/08/22 08:40:31;;;;;;;26.80;17.33;;;;;;;25.74;100.00;99313.25;6306866;28;20032;-74
2022/08/22 08:43:47;;;;;;;28.38;18.70;;;;;;;25.25;100.00;99301.25;6305577;28;20032;-75
2022/08/22 08:47:00;;;;;;;26.92;17.40;;;;;;;25.47;100.00;99298.31;6319649;28;20040;-73
2022/08/22 08:50:22;;;;;;;26.40;16.65;;;;;;;25.44;100.00;99294.22;6321356;28;20400;-72
2022/08/22 08:53:49;;;;;;;24.42;15.75;;;;;;;25.42;100.00;99292.78;6323778;28;20044;-72
2022/08/22 08:57:14;;;;;;;24.70;14.85;;;;;;;24.85;100.00;99300.41;6338918;28;20125;-72
2022/08/22 09:00:24;;;;;;;20.52;14.45;;;;;;;24.99;100.00;99296.72;6347310;28;20059;-75
2022/08/22 09:03:34;;;;;;;19.77;13.23;;;;;;;25.17;100.00;99292.59;6347549;28;20117;-74
2022/08/22 09:07:20;;;;;;;22.48;13.65;;;;;;;25.24;100.00;99296.09;6322874;28;20484;-74
2022/08/22 09:10:39;;;;;;;22.75;12.48;;;;;;;25.97;100.00;99290.59;6295015;28;20052;-73
2022/08/22 09:14:22;;;;;;;20.27;12.20;;;;;;;26.00;98.54;99292.84;6304851;28;20063;-75
2022/08/22 09:17:40;;;;;;;17.10;9.85;;;;;;;25.84;99.16;99288.78;6203513;28;20061;-75
2022/08/22 09:21:34;;;;;;;16.63;9.88;;;;;;;25.63;92.09;99286.38;6210003;28;20050;-75
2022/08/22 09:24:56;;;;;;;20.98;10.30;;;;;;;26.03;98.37;99283.59;6245152;28;20054;-72
2022/08/22 09:28:00;;;;;;;20.73;10.57;;;;;;;26.22;98.83;99281.84;6246487;28;20057;-75
2022/08/22 09:31:01;;;;;;;18.63;9.85;;;;;;;26.34;93.94;99285.47;6303922;28;20462;-72
2022/08/22 09:34:11;;;;;;;14.85;8.02;;;;;;;26.73;86.22;99283.59;6304150;28;20052;-72
2022/08/22 09:37:20;;;;;;;16.70;7.43;;;;;;;27.40;81.22;99277.66;6322206;28;20051;-74
2022/08/22 09:40:39;;;;;;;13.68;7.40;;;;;;;27.68;82.95;99277.97;6320552;28;20404;-74
2022/08/22 09:43:55;;;;;;;17.63;8.18;;;;;;;27.70;81.85;99283.09;6321159;28;20086;-75
2022/08/22 09:47:11;;;;;;;15.25;7.88;;;;;;;27.38;83.75;99277.88;6320989;28;20051;-73
2022/08/22 09:50:19;;;;;;;13.45;7.82;;;;;;;27.30;80.07;99272.81;6321254;28;20044;-75
2022/08/22 09:53:34;;;;;;;14.20;7.55;;;;;;;27.12;80.61;99271.72;6314562;28;20122;-74
2022/08/22 09:56:46;;;;;;;14.10;6.82;;;;;;;27.22;80.20;99271.22;6319968;28;20044;-74
2022/08/22 10:00:12;;;;;;;14.90;7.20;;;;;;;27.06;81.32;99264.56;6318978;28;20476;-72
2022/08/22 10:03:27;;;;;;;15.30;6.90;;;;;;;27.27;80.12;99271.41;6282481;28;20049;-75
2022/08/22 10:06:55;;;;;;;18.10;7.07;;;;;;;26.60;80.05;99272.97;6297334;28;20507;-75
2022/08/22 10:10:02;;;;;;;18.40;7.53;;;;;;;26.48;84.09;99270.13;6282153;28;20070;-73
2022/08/22 10:13:17;;;;;;;12.02;6.35;;;;;;;26.48;85.50;99276.34;6319353;28;20063;-73
2022/08/22 10:17:01;;;;;;;15.50;5.88;;;;;;;26.74;84.82;99277.19;6302232;28;20058;-73
2022/08/22 10:20:20;;;;;;;11.00;6.72;;;;;;;27.39;77.15;99274.16;6319114;28;20048;-73
2022/08/22 10:23:37;;;;;;;18.05;6.13;;;;;;;28.22;76.94;99275.44;6320310;28;20533;-73
2022/08/22 10:26:50;;;;;;;13.68;5.35;;;;;;;28.82;70.00;99263.00;6320743;28;20056;-72
2022/08/22 10:29:56;;;;;;;10.60;4.95;;;;;;;29.19;67.95;99269.00;6319725;28;20488;-73
2022/08/22 10:33:13;;;;;;;16.65;5.45;;;;;;;28.38;70.41;99265.94;6319487;28;20052;-74
2022/08/22 10:36:22;;;;;;;16.13;5.43;;;;;;;28.22;78.48;99267.41;6320626;28;20037;-73
2022/08/22 10:39:42;;;;;;;9.20;4.45;;;;;;;28.14;73.19;99260.47;6319410;28;20088;-75
2022/08/22 10:42:52;;;;;;;17.77;5.63;;;;;;;28.14;74.97;99267.72;6315084;28;20399;-73
2022/08/22 10:46:02;;;;;;;12.15;5.38;;;;;;;28.08;74.34;99258.72;6318177;28;20051;-73
2022/08/22 10:49:28;;;;;;;11.85;4.30;;;;;;;27.96;74.47;99247.13;6317087;28;20040;-75
2022/08/22 10:52:48;;;;;;;15.43;4.70;;;;;;;28.62;70.44;99252.59;6322927;28;20040;-75
2022/08/22 10:55:52;;;;;;;14.38;4.57;;;;;;;28.33;72.86;99258.59;6320899;28;20040;-73
2022/08/22 10:59:26;;;;;;;15.25;4.85;;;;;;;28.02;74.14;99248.09;6317117;28;20453;-73
2022/08/22 11:02:48;;;;;;;9.43;4.57;;;;;;;27.81;73.53;99244.81;6312622;28;20056;-75
2022/08/22 11:05:58;;;;;;;9.73;4.68;;;;;;;27.63;73.24;99237.59;6324874;28;20044;-75
2022/08/22 11:09:19;;;;;;;10.65;5.00;;;;;;;27.99;75.95;99225.22;6307925;28;20125;-75
2022/08/22 11:12:43;;;;;;;9.07;3.70;;;;;;;28.20;73.30;99233.81;6322984;28;20443;-74
2022/08/22 11:16:04;;;;;;;12.73;4.53;;;;;;;28.20;68.51;99236.50;6347180;28;20510;-74
2022/08/22 11:19:11;;;;;;;7.85;4.47;;;;;;;28.17;73.06;99229.72;6324940;28;20044;-75
2022/08/22 11:22:38;;;;;;;9.90;4.05;;;;;;;27.89;68.67;99222.28;6306666;28;20040;-75
2022/08/22 11:26:02;;;;;;;9.63;4.10;;;;;;;28.18;67.92;99225.19;6312145;28;20056;-74
2022/08/22 11:29:23;;;;;;;9.60;4.20;;;;;;;27.95;68.98;99224.06;6285604;28;20056;-75
2022/08/22 11:32:40;;;;;;;8.27;4.00;;;;;;;28.67;66.46;99221.34;6326598;28;20101;-75
2022/08/22 11:35:56;;;;;;;10.20;4.25;;;;;;;29.22;66.51;99222.88;6324312;28;20145;-75
2022/08/22 11:39:02;;;;;;;8.52;4.25;;;;;;;29.67;61.80;99222.19;6308901;28;20459;-75
2022/08/22 11:42:29;;;;;;;9.98;4.60;;;;;;;30.07;58.71;99221.34;6345624;27;20052;-73
2022/08/22 11:45:39;;;;;;;12.77;4.40;;;;;;;29.49;61.90;99211.63;6282296;28;20056;-75
2022/08/22 11:49:02;;;;;;;8.65;4.00;;;;;;;28.93;66.55;99201.28;6299072;28;20040;-75
2022/08/22 11:52:45;;;;;;;8.02;3.50;;;;;;;29.50;65.71;99195.22;6282292;28;20076;-75
2022/08/22 11:56:23;;;;;;;10.10;3.92;;;;;;;29.81;61.89;99179.72;6281732;28;20048;-73
2022/08/22 11:59:39;;;;;;;6.70;3.60;;;;;;;30.41;59.46;99182.94;6312592;28;20517;-73
2022/08/22 12:02:59;;;;;;;6.53;3.50;;;;;;;30.10;59.16;99177.84;6323651;28;20112;-73
2022/08/22 12:06:20;;;;;;;8.75;3.90;;;;;;;29.41;58.57;99171.69;6323125;28;20400;-73
2022/08/22 12:09:42;;;;;;;10.75;3.78;;;;;;;29.41;58.59;99172.50;6318605;28;20118;-75
2022/08/22 12:12:54;;;;;;;9.48;3.67;;;;;;;29.50;59.00;99176.41;6319151;28;20503;-75
2022/08/22 12:16:18;;;;;;;5.88;3.17;;;;;;;29.47;56.20;99173.41;6299606;28;20045;-73
2022/08/22 12:19:21;;;;;;;6.07;3.20;;;;;;;29.89;57.45;99157.81;6300506;28;20098;-73
2022/08/22 12:22:41;;;;;;;8.63;3.30;;;;;;;30.08;58.83;99155.75;6299487;28;20469;-73
2022/08/22 12:25:54;;;;;;;5.95;3.40;;;;;;;30.11;56.78;99149.06;6305820;28;20044;-75
2022/08/22 12:29:02;;;;;;;5.72;3.20;;;;;;;30.20;54.97;99144.91;6298204;28;20052;-74
2022/08/22 12:32:27;;;;;;;6.68;3.28;;;;;;;30.32;53.69;99139.47;6281226;28;20102;-75
2022/08/22 12:35:37;;;;;;;9.88;3.25;;;;;;;30.59;53.78;99145.00;6305615;28;20048;-74
2022/08/22 12:39:14;;;;;;;6.47;3.22;;;;;;;30.63;53.31;99140.75;6314341;28;20055;-73
2022/08/22 12:42:28;;;;;;;7.22;3.25;;;;;;;30.44;50.90;99142.91;6298740;28;20036;-74
2022/08/22 12:45:41;;;;;;;6.95;3.33;;;;;;;30.13;54.04;99141.56;6318161;28;20494;-74
2022/08/22 12:49:06;;;;;;;5.82;3.30;;;;;;;29.76;54.71;99139.31;6324042;28;20074;-73
2022/08/22 12:52:32;;;;;;;9.05;3.42;;;;;;;29.44;55.45;99147.00;6322491;28;20047;-75
2022/08/22 12:55:53;;;;;;;5.90;3.10;;;;;;;29.29;56.74;99151.03;6306411;28;20059;-75
2022/08/22 12:59:06;;;;;;;6.63;3.50;;;;;;;29.16;57.49;99156.69;6311188;28;20441;-73
2022/08/22 13:02:31;;;;;;;7.95;3.78;;;;;;;29.10;56.96;99152.22;6314184;28;20046;-76
2022/08/22 13:05:35;;;;;;;7.47;3.20;;;;;;;29.08;54.05;99149.75;6313834;28;20036;-74
2022/08/22 13:08:43;;;;;;;6.25;2.80;;;;;;;29.13;55.96;99157.13;6296741;28;20140;-75
2022/08/22 13:11:50;;;;;;;9.30;3.15;;;;;;;29.15;54.54;99173.03;6297182;28;20049;-75
2022/08/22 13:15:42;;;;;;;5.35;2.70;;;;;;;29.22;54.77;99176.38;6287263;28;20134;-75
2022/08/22 13:18:52;;;;;;;11.07;3.47;;;;;;;29.07;56.57;99180.34;6227815;28;20117;-75
2022/08/22 13:22:04;;;;;;;9.57;2.85;;;;;;;28.55;60.51;99187.50;6322024;28;20040;-74
2022/08/22 13:25:14;;;;;;;9.18;2.97;;;;;;;27.93;62.78;99183.25;6312499;28;20424;-74
2022/08/22 13:28:16;;;;;;;3.80;2.63;;;;;;;27.39;65.58;99185.78;6312358;28;20052;-74
2022/08/22 13:31:27;;;;;;;3.60;1.90;;;;;;;27.04;68.42;99189.03;6304801;28;20480;-73
2022/08/22 13:34:36;;;;;;;4.72;2.38;;;;;;;26.60;69.21;99192.72;6304795;28;20079;-72
2022/08/22 13:37:43;;;;;;;2.20;1.73;;;;;;;26.62;67.84;99188.78;6320872;28;20051;-75
2022/08/22 13:40:48;;;;;;;3.30;1.90;;;;;;;26.33;65.95;99203.59;6322220;28;20047;-74
2022/08/22 13:44:05;;;;;;;9.73;2.08;;;;;;;26.39;66.48;99216.09;6320884;28;20047;-72
2022/08/22 13:47:15;;;;;;;3.05;2.03;;;;;;;25.98;68.23;99227.28;6316429;28;20408;-72
2022/08/22 13:50:21;;;;;;;3.53;2.08;;;;;;;25.72;68.57;99232.50;6298211;28;20597;-72
2022/08/22 13:53:35;;;;;;;4.90;2.25;;;;;;;26.08;69.77;99241.81;6297286;28;20040;-73
2022/08/22 13:56:44;;;;;;;3.42;2.10;;;;;;;26.11;68.34;99244.06;6302752;28;20055;-75
2022/08/22 14:00:06;;;;;;;2.78;2.05;;;;;;;26.00;69.25;99258.09;6335783;28;20507;-75
2022/08/22 14:03:17;;;;;;;8.23;2.17;;;;;;;26.10;69.61;99258.44;6321806;28;20044;-74
2022/08/22 14:06:30;;;;;;;2.20;2.00;;;;;;;26.24;66.20;99274.44;6317781;28;20833;-73
2022/08/22 14:09:45;;;;;;;3.15;1.73;;;;;;;26.36;66.89;99296.78;6296480;28;20040;-74
2022/08/22 14:13:17;;;;;;;4.13;2.00;;;;;;;26.27;69.37;99317.56;6296500;28;20056;-74
2022/08/22 14:16:23;;;;;;;3.63;1.92;;;;;;;26.13;69.44;99316.03;6310592;28;20126;-73
2022/08/22 14:19:32;;;;;;;6.93;2.08;;;;;;;25.99;68.97;99304.56;6320623;28;20079;-73
2022/08/22 14:22:35;;;;;;;12.88;2.22;;;;;;;25.68;70.03;99310.63;6320320;28;20056;-73
2022/08/22 14:25:40;;;;;;;10.82;2.40;;;;;;;25.43;71.49;99327.31;6320674;28;20530;-75
2022/08/22 14:28:44;;;;;;;3.20;2.13;;;;;;;25.19;76.30;99357.28;6303064;28;20102;-74
2022/08/22 14:31:58;;;;;;;7.85;1.55;;;;;;;23.88;95.57;99366.31;6326749;28;20042;-75
2022/08/22 14:35:17;;;;;;;6.80;1.55;;;;;;;22.72;100.00;99379.91;6313106;28;20097;-75
2022/08/22 14:38:24;;;;;;;7.00;1.73;;;;;;;22.12;100.00;99373.88;6320398;28;20446;-74
2022/08/22 14:41:31;;;;;;;6.28;1.35;;;;;;;21.79;100.00;99376.91;6354118;28;20460;-73
2022/08/22 14:45:09;;;;;;;8.00;1.67;;;;;;;21.52;100.00;99381.00;6354800;28;20048;-75
2022/08/22 14:48:14;;;;;;;4.13;1.33;;;;;;;21.40;100.00;99366.47;6321747;28;20470;-74
2022/08/22 14:51:23;;;;;;;6.22;1.40;;;;;;;21.11;100.00;99336.22;6319877;28;20032;-75
2022/08/22 14:54:29;;;;;;;4.38;1.30;;;;;;;21.03;100.00;99337.13;6303234;28;20048;-75
2022/08/22 14:57:34;;;;;;;4.93;1.40;;;;;;;21.13;100.00;99329.72;6315750;28;20052;-76
2022/08/22 15:00:44;;;;;;;3.15;1.20;;;;;;;21.23;100.00;99329.47;6319627;28;20502;-75
2022/08/22 15:03:52;;;;;;;5.97;1.00;;;;;;;21.05;100.00;99318.38;6301514;28;20496;-75